createdAt,value
2023-02-05T00:00:38.191Z,1.60
2023-02-05T00:03:06.755Z,1.37
2023-02-05T00:05:35.557Z,1.57
2023-02-05T00:08:04.218Z,1.90
2023-02-05T00:10:32.663Z,1.60
2023-02-05T00:13:01.154Z,1.50
2023-02-05T00:15:29.904Z,1.43
2023-02-05T00:17:59.742Z,1.63
2023-02-05T00:20:28.678Z,1.60
2023-02-05T00:22:57.873Z,1.37
2023-02-05T00:25:26.303Z,1.47
2023-02-05T00:27:54.744Z,1.63
2023-02-05T00:30:23.378Z,2.10
2023-02-05T00:32:51.854Z,2.07
2023-02-05T00:35:21.776Z,1.93
2023-02-05T00:37:50.212Z,1.73
2023-02-05T00:40:19.352Z,1.60
2023-02-05T00:42:47.764Z,1.00
2023-02-05T00:45:19.303Z,1.27
2023-02-05T00:47:52.334Z,1.57
2023-02-05T00:50:22.174Z,2.10
2023-02-05T00:52:50.612Z,1.47
2023-02-05T00:55:19.289Z,1.47
2023-02-05T00:57:47.723Z,1.30
2023-02-05T01:00:17.685Z,2.33
2023-02-05T01:02:46.279Z,2.53
2023-02-05T01:05:14.818Z,1.20
2023-02-05T01:07:44.624Z,1.67
2023-02-05T01:10:13.555Z,1.67
2023-02-05T01:12:42.012Z,1.67
2023-02-05T01:15:14.213Z,1.80
2023-02-05T01:17:43.009Z,1.33
2023-02-05T01:20:14.497Z,1.50
2023-02-05T01:22:44.804Z,1.23
2023-02-05T01:25:13.457Z,1.37
2023-02-05T01:27:41.920Z,2.03
2023-02-05T01:30:12.632Z,1.80
2023-02-05T01:32:41.732Z,1.17
2023-02-05T01:35:11.188Z,1.30
2023-02-05T01:37:39.664Z,1.40
2023-02-05T01:40:14.902Z,0.97
2023-02-05T01:42:43.829Z,1.63
2023-02-05T01:46:16.032Z,1.60
2023-02-05T01:48:48.156Z,1.40
2023-02-05T01:51:17.756Z,2.33
2023-02-05T01:53:49.509Z,1.43
2023-02-05T01:56:24.141Z,1.43
2023-02-05T01:58:59.658Z,1.60
2023-02-05T02:01:28.968Z,1.50
2023-02-05T02:04:04.537Z,1.23
2023-02-05T02:06:36.402Z,1.40
2023-02-05T02:09:07.244Z,1.20
2023-02-05T02:11:42.916Z,2.37
2023-02-05T02:14:13.197Z,1.23
2023-02-05T02:16:42.658Z,1.30
2023-02-05T02:19:21.099Z,1.37
2023-02-05T02:22:26.898Z,1.60
2023-02-05T02:25:38.198Z,2.17
2023-02-05T02:28:12.179Z,1.47
2023-02-05T02:30:45.178Z,2.87
2023-02-05T02:33:21.564Z,2.17
2023-02-05T02:35:57.835Z,0.70
2023-02-05T02:38:33.493Z,1.53
2023-02-05T02:41:08.847Z,1.20
2023-02-05T02:43:49.338Z,1.63
2023-02-05T02:46:23.288Z,1.33
2023-02-05T02:48:57.315Z,1.60
2023-02-05T02:51:28.723Z,1.27
2023-02-05T02:54:01.708Z,0.90
2023-02-05T02:56:33.833Z,1.30
2023-02-05T02:59:09.650Z,0.93
2023-02-05T03:01:46.918Z,1.33
2023-02-05T03:04:23.590Z,1.10
2023-02-05T03:06:55.661Z,1.73
2023-02-05T03:09:31.288Z,1.50
2023-02-05T03:11:59.978Z,1.03
2023-02-05T03:14:29.897Z,1.27
2023-02-05T03:16:58.718Z,1.80
2023-02-05T03:19:27.474Z,1.87
2023-02-05T03:22:00.613Z,1.20
2023-02-05T03:24:29.238Z,1.23
2023-02-05T03:26:57.646Z,1.73
2023-02-05T03:29:31.959Z,1.20
2023-02-05T03:32:11.445Z,1.00
2023-02-05T03:34:53.398Z,1.67
2023-02-05T03:37:34.024Z,1.13
2023-02-05T03:40:14.815Z,1.17
2023-02-05T03:42:55.890Z,1.80
2023-02-05T03:45:46.719Z,1.37
2023-02-05T03:48:36.916Z,1.43
2023-02-05T03:51:33.739Z,1.63
2023-02-05T03:54:10.687Z,1.50
2023-02-05T03:56:50.676Z,1.30
2023-02-05T03:59:20.710Z,1.37
2023-02-05T04:01:51.130Z,1.93
2023-02-05T04:04:19.711Z,1.23
2023-02-05T04:06:50.607Z,1.33
2023-02-05T04:09:19.049Z,1.20
2023-02-05T04:11:47.638Z,1.40
2023-02-05T04:14:16.506Z,1.13
2023-02-05T04:16:45.047Z,1.07
2023-02-05T04:19:14.890Z,0.70
2023-02-05T04:21:43.337Z,1.10
2023-02-05T04:24:11.954Z,0.83
2023-02-05T04:26:40.407Z,1.60
2023-02-05T04:29:08.909Z,1.63
2023-02-05T04:31:37.628Z,0.97
2023-02-05T04:34:06.165Z,0.83
2023-02-05T04:36:35.994Z,1.00
2023-02-05T04:39:04.808Z,1.30
2023-02-05T04:41:33.319Z,0.97
2023-02-05T04:44:01.812Z,1.40
2023-02-05T04:46:30.404Z,0.93
2023-02-05T04:48:58.857Z,0.73
2023-02-05T04:51:27.270Z,1.70
2023-02-05T04:53:57.063Z,1.27
2023-02-05T04:56:25.527Z,1.50
2023-02-05T04:58:53.959Z,0.83
2023-02-05T05:01:24.411Z,1.07
2023-02-05T05:03:53.287Z,0.77
2023-02-05T05:06:22.111Z,0.70
2023-02-05T05:08:50.469Z,0.93
2023-02-05T05:11:21.352Z,0.90
2023-02-05T05:13:51.985Z,0.80
2023-02-05T05:16:20.907Z,1.00
2023-02-05T05:18:52.005Z,1.43
2023-02-05T05:21:20.466Z,1.27
2023-02-05T05:23:48.868Z,1.07
2023-02-05T05:26:17.452Z,1.60
2023-02-05T05:28:47.264Z,1.10
2023-02-05T05:31:19.593Z,1.50
2023-02-05T05:33:48.718Z,1.53
2023-02-05T05:36:18.352Z,1.20
2023-02-05T05:38:46.815Z,1.10
2023-02-05T05:41:39.439Z,1.43
2023-02-05T05:44:10.177Z,1.77
2023-02-05T05:46:38.837Z,1.10
2023-02-05T05:49:07.257Z,1.30
2023-02-05T05:51:35.699Z,1.23
2023-02-05T05:54:04.184Z,1.10
2023-02-05T05:56:32.668Z,1.30
2023-02-05T05:59:01.067Z,0.90
2023-02-05T06:01:30.994Z,1.47
2023-02-05T06:03:59.394Z,0.80
2023-02-05T06:06:27.840Z,0.97
2023-02-05T06:08:56.224Z,1.17
2023-02-05T06:11:24.666Z,0.80
2023-02-05T06:13:53.072Z,1.03
2023-02-05T06:16:22.664Z,1.17
2023-02-05T06:18:52.501Z,1.40
2023-02-05T06:21:20.941Z,1.10
2023-02-05T06:23:49.356Z,1.30
2023-02-05T06:26:17.812Z,1.10
2023-02-05T06:28:46.213Z,1.50
2023-02-05T06:31:14.790Z,1.00
2023-02-05T06:33:43.310Z,1.23
2023-02-05T06:36:13.159Z,1.60
2023-02-05T06:38:41.542Z,1.50
2023-02-05T06:41:09.937Z,1.63
2023-02-05T06:43:38.459Z,1.13
2023-02-05T06:46:06.988Z,2.20
2023-02-05T06:48:35.399Z,1.10
2023-02-05T06:51:03.776Z,1.90
2023-02-05T06:53:33.589Z,1.00
2023-02-05T06:56:02.038Z,1.50
2023-02-05T06:58:30.453Z,0.97
2023-02-05T07:00:58.921Z,0.93
2023-02-05T07:03:27.408Z,1.07
2023-02-05T07:05:55.898Z,1.07
2023-02-05T07:08:24.397Z,1.63
2023-02-05T07:10:54.192Z,1.47
2023-02-05T07:13:22.594Z,1.57
2023-02-05T07:15:51.086Z,1.07
2023-02-05T07:18:19.660Z,1.63
2023-02-05T07:20:48.288Z,0.87
2023-02-05T07:23:16.850Z,1.13
2023-02-05T07:25:46.329Z,1.03
2023-02-05T07:28:16.182Z,1.83
2023-02-05T07:30:44.813Z,1.03
2023-02-05T07:33:13.262Z,2.03
2023-02-05T07:35:41.787Z,1.27
2023-02-05T07:38:10.983Z,1.80
2023-02-05T07:40:39.369Z,1.40
2023-02-05T07:43:07.859Z,1.40
2023-02-05T07:45:37.687Z,1.50
2023-02-05T07:48:06.516Z,1.67
2023-02-05T07:50:35.011Z,4.30
2023-02-05T07:53:03.405Z,1.50
2023-02-05T07:55:32.020Z,1.63
2023-02-05T07:58:00.542Z,1.47
2023-02-05T08:00:28.969Z,1.93
2023-02-05T08:02:58.732Z,1.30
2023-02-05T08:05:27.253Z,1.00
2023-02-05T08:07:55.791Z,1.77
2023-02-05T08:10:24.219Z,1.20
2023-02-05T08:12:52.736Z,1.50
2023-02-05T08:15:21.219Z,1.60
2023-02-05T08:17:49.761Z,1.40
2023-02-05T08:20:20.134Z,1.23
2023-02-05T08:22:48.765Z,0.80
2023-02-05T08:25:17.430Z,1.40
2023-02-05T08:27:46.400Z,1.30
2023-02-05T08:30:18.015Z,1.40
2023-02-05T08:32:49.923Z,1.33
2023-02-05T08:35:20.149Z,0.77
2023-02-05T08:37:49.638Z,0.97
2023-02-05T08:40:18.476Z,0.90
2023-02-05T08:42:48.683Z,1.13
2023-02-05T08:45:17.320Z,0.80
2023-02-05T08:47:45.912Z,1.00
2023-02-05T08:50:15.579Z,1.23
2023-02-05T08:52:45.403Z,1.00
2023-02-05T08:55:14.367Z,1.30
2023-02-05T08:57:42.973Z,1.10
2023-02-05T09:00:13.674Z,1.13
2023-02-05T09:02:43.369Z,0.97
2023-02-05T09:05:12.175Z,1.20
2023-02-05T09:07:41.579Z,0.97
2023-02-05T09:10:14.080Z,1.67
2023-02-05T09:12:42.545Z,2.33
2023-02-05T09:15:11.786Z,1.20
2023-02-05T09:17:40.217Z,1.00
2023-02-05T09:20:10.104Z,2.03
2023-02-05T09:22:38.693Z,1.20
2023-02-05T09:25:08.467Z,1.67
2023-02-05T09:27:38.310Z,0.80
2023-02-05T09:30:07.896Z,1.07
2023-02-05T09:32:36.478Z,1.23
2023-02-05T09:35:05.288Z,2.80
2023-02-05T09:37:33.769Z,1.23
2023-02-05T09:43:04.466Z,2.37
2023-02-05T09:45:46.799Z,1.00
2023-02-05T09:48:50.541Z,1.63
2023-02-05T09:51:23.710Z,1.30
2023-02-05T09:54:11.701Z,1.30
2023-02-05T09:56:40.261Z,1.15
2023-02-05T09:59:17.202Z,1.20
2023-02-05T10:01:50.966Z,1.30
2023-02-05T10:04:20.500Z,1.33
2023-02-05T10:07:21.320Z,1.50
2023-02-05T10:10:25.251Z,0.90
2023-02-05T10:13:34.510Z,1.03
2023-02-05T10:16:53.282Z,0.80
2023-02-05T10:20:00.270Z,1.53
2023-02-05T10:22:38.697Z,1.40
2023-02-05T10:26:03.531Z,2.03
2023-02-05T10:29:09.306Z,1.80
2023-02-05T10:31:44.848Z,1.87
2023-02-05T10:34:31.604Z,1.80
2023-02-05T10:37:02.639Z,2.37
2023-02-05T10:39:32.246Z,1.97
2023-02-05T10:42:06.418Z,1.30
2023-02-05T10:44:39.832Z,1.10
2023-02-05T10:47:15.318Z,1.40
2023-02-05T10:49:51.849Z,1.63
2023-02-05T10:52:20.338Z,2.07
2023-02-05T10:54:49.224Z,1.37
2023-02-05T10:57:21.069Z,1.27
2023-02-05T10:59:56.039Z,1.50
2023-02-05T11:02:32.597Z,2.03
2023-02-05T11:05:07.581Z,1.53
2023-02-05T11:07:40.608Z,1.30
2023-02-05T11:10:18.483Z,1.50
2023-02-05T11:12:50.130Z,1.42
2023-02-05T11:15:25.773Z,1.58
2023-02-05T11:18:00.221Z,2.30
2023-02-05T11:20:34.754Z,1.65
2023-02-05T11:23:25.845Z,1.63
2023-02-05T11:25:57.297Z,2.40
2023-02-05T11:28:29.930Z,1.60
2023-02-05T11:30:59.318Z,1.50
2023-02-05T11:33:32.540Z,3.13
2023-02-05T11:36:04.330Z,1.85
2023-02-05T11:38:43.471Z,1.83
2023-02-05T11:41:14.676Z,1.70
2023-02-05T11:43:51.013Z,2.45
2023-02-05T11:46:22.941Z,1.83
2023-02-05T11:48:59.665Z,2.08
2023-02-05T11:51:44.782Z,2.13
2023-02-05T11:54:23.212Z,1.92
2023-02-05T11:57:28.330Z,1.88
2023-02-05T11:59:59.864Z,1.60
2023-02-05T12:02:34.431Z,2.30
2023-02-05T12:05:19.907Z,1.48
2023-02-05T12:07:55.360Z,1.80
2023-02-05T12:10:33.819Z,2.17
2023-02-05T12:13:18.508Z,1.08
2023-02-05T12:15:57.142Z,1.83
2023-02-05T12:18:44.104Z,1.35
2023-02-05T12:21:26.813Z,2.03
2023-02-05T12:24:31.566Z,2.40
2023-02-05T12:27:12.544Z,2.78
2023-02-05T12:30:02.324Z,1.65
2023-02-05T12:32:45.225Z,1.40
2023-02-05T12:35:42.974Z,1.75
2023-02-05T12:38:32.398Z,1.60
2023-02-05T12:41:21.829Z,1.10
2023-02-05T12:43:54.355Z,1.67
2023-02-05T12:47:01.873Z,1.33
2023-02-05T12:50:01.540Z,1.75
2023-02-05T12:52:59.359Z,1.38
2023-02-05T12:55:52.599Z,1.63
2023-02-05T12:58:23.609Z,2.17
2023-02-05T13:00:55.947Z,2.13
2023-02-05T13:03:31.868Z,1.95
2023-02-05T13:06:05.098Z,1.88
2023-02-05T13:08:43.732Z,2.25
2023-02-05T13:11:26.820Z,3.45
2023-02-05T13:14:05.018Z,2.22
2023-02-05T13:16:42.871Z,4.57
2023-02-05T13:19:30.014Z,1.85
2023-02-05T13:22:20.673Z,3.05
2023-02-05T13:25:11.602Z,1.92
2023-02-05T13:28:04.111Z,1.92
2023-02-05T13:30:39.788Z,1.53
2023-02-05T13:33:10.441Z,2.23
2023-02-05T13:35:50.398Z,2.22
2023-02-05T13:38:48.024Z,2.42
2023-02-05T13:41:50.194Z,1.80
2023-02-05T13:44:48.028Z,1.52
2023-02-05T13:48:01.193Z,1.75
2023-02-05T13:51:21.134Z,2.17
2023-02-05T13:54:09.521Z,2.22
2023-02-05T13:56:59.590Z,4.00
2023-02-05T13:59:37.944Z,3.22
2023-02-05T14:02:35.140Z,2.53
2023-02-05T14:05:06.058Z,2.73
2023-02-05T14:07:45.146Z,2.23
2023-02-05T14:10:30.141Z,2.83
2023-02-05T14:13:19.199Z,4.68
2023-02-05T14:15:51.107Z,3.00
2023-02-05T14:18:51.711Z,2.10
2023-02-05T14:22:12.055Z,2.07
2023-02-05T14:24:48.277Z,2.23
2023-02-05T14:27:57.534Z,2.50
2023-02-05T14:30:47.438Z,3.00
2023-02-05T14:33:40.790Z,2.50
2023-02-05T14:36:40.530Z,2.70
2023-02-05T14:39:26.945Z,2.73
2023-02-05T14:42:00.004Z,1.80
2023-02-05T14:44:33.019Z,2.63
2023-02-05T14:47:10.937Z,3.93
2023-02-05T14:49:47.693Z,2.80
2023-02-05T14:52:33.124Z,2.73
2023-02-05T14:55:08.041Z,2.27
2023-02-05T14:57:47.825Z,3.07
2023-02-05T15:00:35.743Z,1.97
2023-02-05T15:03:32.060Z,2.53
2023-02-05T15:06:11.246Z,2.30
2023-02-05T15:08:57.172Z,2.83
2023-02-05T15:11:38.661Z,2.90
2023-02-05T15:14:53.357Z,3.67
2023-02-05T15:17:53.787Z,2.57
2023-02-05T15:20:36.371Z,3.37
2023-02-05T15:23:37.255Z,3.17
2023-02-05T15:26:10.802Z,3.13
2023-02-05T15:28:48.330Z,3.23
2023-02-05T15:31:32.164Z,3.13
2023-02-05T15:34:22.677Z,5.43
2023-02-05T15:36:59.384Z,3.70
2023-02-05T15:39:38.083Z,3.80
2023-02-05T15:42:08.164Z,3.17
2023-02-05T15:44:44.159Z,4.07
2023-02-05T15:47:21.314Z,3.10
2023-02-05T15:49:53.509Z,3.30
2023-02-05T15:52:35.852Z,2.50
2023-02-05T15:55:17.795Z,2.30
2023-02-05T15:57:49.098Z,3.33
2023-02-05T16:00:25.592Z,3.57
2023-02-05T16:03:02.161Z,3.60
2023-02-05T16:05:33.868Z,2.47
2023-02-05T16:08:05.995Z,3.57
2023-02-05T16:10:37.498Z,2.43
2023-02-05T16:13:16.354Z,3.83
2023-02-05T16:15:55.012Z,3.13
2023-02-05T16:18:41.089Z,3.30
2023-02-05T16:21:23.017Z,4.90
2023-02-05T16:23:58.073Z,3.07
2023-02-05T16:26:33.412Z,2.87
2023-02-05T16:29:11.679Z,3.90
2023-02-05T16:31:50.578Z,3.37
2023-02-05T16:34:23.119Z,3.17
2023-02-05T16:36:55.182Z,4.27
2023-02-05T16:39:30.597Z,4.13
2023-02-05T16:42:08.063Z,3.43
2023-02-05T16:44:40.714Z,5.40
2023-02-05T16:47:23.956Z,5.90
2023-02-05T16:49:54.525Z,4.90
2023-02-05T16:52:34.219Z,4.13
2023-02-05T16:55:31.431Z,3.73
2023-02-05T16:58:08.963Z,4.37
2023-02-05T17:00:39.034Z,6.10
2023-02-05T17:03:19.810Z,4.27
2023-02-05T17:05:58.855Z,3.67
2023-02-05T17:08:33.641Z,3.93
2023-02-05T17:11:06.901Z,4.50
2023-02-05T17:13:43.464Z,5.73
2023-02-05T17:16:29.500Z,4.03
2023-02-05T17:19:02.115Z,3.37
2023-02-05T17:21:33.839Z,4.13
2023-02-05T17:24:09.771Z,3.90
2023-02-05T17:26:43.571Z,3.77
2023-02-05T17:29:18.960Z,4.90
2023-02-05T17:31:52.411Z,4.60
2023-02-05T17:34:22.472Z,4.57
2023-02-05T17:36:52.635Z,5.13
2023-02-05T17:39:22.585Z,4.30
2023-02-05T17:42:15.451Z,4.07
2023-02-05T17:44:46.975Z,3.93
2023-02-05T17:47:17.623Z,3.50
2023-02-05T17:49:47.931Z,2.93
2023-02-05T17:52:18.086Z,4.03
2023-02-05T17:54:48.562Z,4.43
2023-02-05T17:57:20.660Z,4.17
2023-02-05T17:59:55.910Z,4.13
2023-02-05T18:02:26.254Z,3.87
2023-02-05T18:04:58.369Z,4.00
2023-02-05T18:07:35.643Z,5.33
2023-02-05T18:10:08.016Z,5.63
2023-02-05T18:12:38.493Z,6.50
2023-02-05T18:15:16.338Z,5.63
2023-02-05T18:17:46.884Z,6.03
2023-02-05T18:20:20.186Z,3.90
2023-02-05T18:22:51.395Z,5.27
2023-02-05T18:25:22.970Z,4.00
2023-02-05T18:27:56.788Z,3.73
2023-02-05T18:30:28.447Z,4.07
2023-02-05T18:32:59.582Z,3.33
2023-02-05T18:35:29.810Z,5.43
2023-02-05T18:38:00.540Z,5.30
2023-02-05T18:40:29.732Z,4.40
2023-02-05T18:42:59.730Z,3.87
2023-02-05T18:45:31.211Z,4.03
2023-02-05T18:48:04.339Z,4.20
2023-02-05T18:50:34.170Z,3.73
2023-02-05T18:53:04.346Z,5.60
2023-02-05T18:55:35.993Z,5.33
2023-02-05T18:58:06.502Z,5.23
2023-02-05T19:00:40.624Z,3.50
2023-02-05T19:03:10.905Z,4.83
2023-02-05T19:05:40.890Z,3.97
2023-02-05T19:08:10.924Z,4.83
2023-02-05T19:10:41.062Z,4.73
2023-02-05T19:13:10.819Z,3.73
2023-02-05T19:15:42.895Z,5.13
2023-02-05T19:18:15.289Z,6.03
2023-02-05T19:20:46.197Z,3.80
2023-02-05T19:23:16.298Z,5.23
2023-02-05T19:25:45.838Z,5.43
2023-02-05T19:28:15.962Z,4.73
2023-02-05T19:30:47.917Z,3.80
2023-02-05T19:33:20.866Z,4.80
2023-02-05T19:35:52.455Z,5.10
2023-02-05T19:38:22.850Z,4.97
2023-02-05T19:40:54.730Z,4.97
2023-02-05T19:43:27.233Z,4.90
2023-02-05T19:46:03.018Z,5.07
2023-02-05T19:48:34.350Z,5.33
2023-02-05T19:51:08.428Z,4.23
2023-02-05T19:53:40.873Z,4.73
2023-02-05T19:56:14.231Z,5.30
2023-02-05T19:58:48.551Z,5.50
2023-02-05T20:01:25.694Z,4.77
2023-02-05T20:03:58.100Z,3.80
2023-02-05T20:06:32.122Z,4.63
2023-02-05T20:09:06.777Z,4.63
2023-02-05T20:11:37.384Z,3.27
2023-02-05T20:14:08.353Z,3.80
2023-02-05T20:16:42.025Z,5.53
2023-02-05T20:19:14.744Z,4.20
2023-02-05T20:21:47.122Z,4.80
2023-02-05T20:24:18.249Z,5.43
2023-02-05T20:26:49.857Z,5.27
2023-02-05T20:29:37.509Z,6.07
2023-02-05T20:32:09.675Z,4.60
2023-02-05T20:34:45.159Z,5.77
2023-02-05T20:37:16.915Z,4.93
2023-02-05T20:39:48.729Z,6.00
2023-02-05T20:42:20.746Z,4.00
2023-02-05T20:44:51.557Z,5.27
2023-02-05T20:47:25.626Z,5.33
2023-02-05T20:49:56.946Z,4.83
2023-02-05T20:52:28.046Z,4.20
2023-02-05T20:54:58.766Z,5.27
2023-02-05T20:57:28.464Z,4.47
2023-02-05T20:59:58.302Z,5.00
2023-02-05T21:02:30.680Z,4.63
2023-02-05T21:05:01.125Z,5.13
2023-02-05T21:07:30.878Z,4.27
2023-02-05T21:10:02.446Z,5.73
2023-02-05T21:12:32.961Z,4.20
2023-02-05T21:15:02.380Z,3.90
2023-02-05T21:17:34.338Z,4.37
2023-02-05T21:20:04.815Z,3.90
2023-02-05T21:22:34.064Z,4.53
2023-02-05T21:25:02.632Z,3.87
2023-02-05T21:27:31.442Z,4.33
2023-02-05T21:30:01.007Z,4.80
2023-02-05T21:32:33.206Z,2.77
2023-02-05T21:35:02.106Z,4.40
2023-02-05T21:37:31.402Z,5.17
2023-02-05T21:40:08.822Z,4.70
2023-02-05T21:42:37.992Z,4.77
2023-02-05T21:45:08.298Z,3.80
2023-02-05T21:47:38.373Z,5.13
2023-02-05T21:50:09.168Z,5.30
2023-02-05T21:52:37.662Z,3.90
2023-02-05T21:55:06.873Z,5.30
2023-02-05T21:57:35.322Z,4.70
2023-02-05T22:00:04.553Z,4.30
2023-02-05T22:02:32.965Z,5.10
2023-02-05T22:05:02.801Z,4.43
2023-02-05T22:07:31.229Z,5.37
2023-02-05T22:09:59.668Z,5.50
2023-02-05T22:12:28.077Z,5.03
2023-02-05T22:14:56.615Z,5.63
2023-02-05T22:17:25.001Z,4.90
2023-02-05T22:19:53.387Z,4.70
2023-02-05T22:22:23.263Z,4.10
2023-02-05T22:24:51.595Z,5.10
2023-02-05T22:27:20.034Z,4.53
2023-02-05T22:29:49.927Z,4.23
2023-02-05T22:32:18.376Z,5.37
2023-02-05T22:34:46.756Z,3.63
2023-02-05T22:37:15.217Z,3.93
2023-02-05T22:39:45.366Z,4.93
2023-02-05T22:42:13.802Z,4.03
2023-02-05T22:44:42.216Z,6.87
2023-02-05T22:47:10.866Z,4.43
2023-02-05T22:49:39.555Z,4.53
2023-02-05T22:52:07.947Z,3.77
2023-02-05T22:54:36.320Z,3.17
2023-02-05T22:57:06.129Z,4.20
2023-02-05T22:59:34.518Z,5.20
2023-02-05T23:02:03.059Z,5.00
2023-02-05T23:04:31.471Z,4.80
2023-02-05T23:06:59.999Z,4.60
2023-02-05T23:09:28.493Z,5.40
2023-02-05T23:11:57.222Z,5.17
2023-02-05T23:14:27.056Z,4.30
2023-02-05T23:16:56.704Z,5.43
2023-02-05T23:19:25.161Z,4.30
2023-02-05T23:21:53.729Z,5.07
2023-02-05T23:24:22.297Z,3.97
2023-02-05T23:26:53.511Z,5.20
2023-02-05T23:29:22.194Z,4.10
2023-02-05T23:31:52.000Z,4.53
2023-02-05T23:34:20.416Z,5.87
2023-02-05T23:36:48.854Z,5.63
2023-02-05T23:39:17.307Z,3.93
2023-02-05T23:41:45.785Z,2.80
2023-02-05T23:44:17.830Z,3.80
2023-02-05T23:46:48.422Z,4.83
2023-02-05T23:49:21.857Z,7.33
2023-02-05T23:51:51.158Z,3.70
2023-02-05T23:54:20.285Z,5.03
2023-02-05T23:56:48.820Z,3.23
2023-02-05T23:59:18.244Z,3.67
